TGL17MP FIMP-LFPG
Flight info
| Callsign | TGL17MP |
|---|---|
| Flight time | N/A |
| Altitude | 36000 |
| Route | NIBIS2A NIBIS UG661 DV UA401 IMKIX/N0492F380 UA401 NN UW325 SIPKI/N0496F370 UT325 IRO/N0488F390 UT325 POGBA/N0492F380 UT325 BORKI/N0486F400 UT325 FL UM731 DIR UB730 DJA UM2 CSO UM998 KAMER DCT NAFOQ DCT SURJU DCT PADKO DCT MRM DCT MTL DCT ETREK DCT RUSIT DCT BULOL DCT LOGNI/N0494F380 DCT MOKIP DCT ARFOZ DCT TINIL |
| Aircraft | A359/H-SDE2E3GHIJ3J4J5LM1ORWXY/LB1D1 |
Departure
| Time | N/A |
|---|---|
| Airport | Sir Seewoosagur Ramgoolam International Airport (FIMP) |
Arrival
| Time | 2026-05-06 12:14 |
|---|---|
| Airport | Charles de Gaulle International Airport (LFPG) |
| Time | Latitude | Longitude | Altitude | Speed | Heading |
|---|---|---|---|---|---|
| 2026-05-06 11:42 | 46.82252 | 5.12803 | 40887 ft | 512 kts | 356° |
| 2026-05-06 11:42 | 46.89390 | 5.12530 | 40887 ft | 513 kts | 356° |
| 2026-05-06 11:43 | 46.96524 | 5.12246 | 40886 ft | 513 kts | 356° |
| 2026-05-06 11:43 | 47.03652 | 5.11957 | 40878 ft | 513 kts | 356° |
| 2026-05-06 11:44 | 47.10781 | 5.11666 | 40454 ft | 512 kts | 356° |
| 2026-05-06 11:44 | 47.14346 | 5.11519 | 40203 ft | 512 kts | 356° |
| 2026-05-06 11:44 | 47.17907 | 5.11371 | 39968 ft | 512 kts | 356° |
| 2026-05-06 11:44 | 47.21472 | 5.11224 | 39737 ft | 513 kts | 356° |
| 2026-05-06 11:45 | 47.25035 | 5.11076 | 39457 ft | 511 kts | 356° |
| 2026-05-06 11:45 | 47.28568 | 5.10930 | 38985 ft | 507 kts | 356° |
| 2026-05-06 11:45 | 47.32104 | 5.10783 | 38324 ft | 509 kts | 356° |
| 2026-05-06 11:45 | 47.35640 | 5.10633 | 37585 ft | 508 kts | 356° |
| 2026-05-06 11:46 | 47.39170 | 5.10483 | 36901 ft | 507 kts | 357° |
| 2026-05-06 11:46 | 47.42692 | 5.10332 | 36206 ft | 506 kts | 357° |
| 2026-05-06 11:46 | 47.46212 | 5.10181 | 35497 ft | 506 kts | 357° |
| 2026-05-06 11:46 | 47.49727 | 5.10028 | 34779 ft | 506 kts | 357° |
| 2026-05-06 11:47 | 47.53250 | 5.09773 | 33948 ft | 508 kts | 353° |
| 2026-05-06 11:47 | 47.56723 | 5.08836 | 32964 ft | 509 kts | 343° |
| 2026-05-06 11:47 | 47.60021 | 5.06974 | 32015 ft | 508 kts | 332° |
| 2026-05-06 11:47 | 47.62963 | 5.04085 | 31057 ft | 508 kts | 322° |
| 2026-05-06 11:48 | 47.65728 | 5.00815 | 30136 ft | 509 kts | 320° |
| 2026-05-06 11:48 | 47.68455 | 4.97458 | 29066 ft | 511 kts | 320° |
| 2026-05-06 11:48 | 47.71169 | 4.94069 | 28239 ft | 506 kts | 320° |
| 2026-05-06 11:48 | 47.73832 | 4.90723 | 27604 ft | 498 kts | 320° |
| 2026-05-06 11:49 | 47.76451 | 4.87419 | 27337 ft | 491 kts | 319° |
| 2026-05-06 11:49 | 47.79048 | 4.84130 | 26997 ft | 490 kts | 319° |
| 2026-05-06 11:49 | 47.81637 | 4.80843 | 26638 ft | 488 kts | 319° |
| 2026-05-06 11:49 | 47.84209 | 4.77571 | 26291 ft | 485 kts | 319° |
| 2026-05-06 11:50 | 47.86765 | 4.74316 | 25928 ft | 482 kts | 319° |
| 2026-05-06 11:50 | 47.89304 | 4.71080 | 25590 ft | 479 kts | 319° |
| 2026-05-06 11:50 | 47.91828 | 4.67859 | 25239 ft | 477 kts | 319° |
| 2026-05-06 11:50 | 47.94336 | 4.64640 | 24991 ft | 476 kts | 319° |
| 2026-05-06 11:51 | 47.96817 | 4.61376 | 24746 ft | 475 kts | 318° |
| 2026-05-06 11:51 | 47.99296 | 4.58130 | 24516 ft | 473 kts | 319° |
| 2026-05-06 11:51 | 48.01780 | 4.54912 | 24264 ft | 472 kts | 319° |
| 2026-05-06 11:51 | 48.04263 | 4.51719 | 24015 ft | 470 kts | 319° |
| 2026-05-06 11:52 | 48.06739 | 4.48543 | 23793 ft | 469 kts | 320° |
| 2026-05-06 11:52 | 48.09212 | 4.45376 | 23567 ft | 467 kts | 320° |
| 2026-05-06 11:52 | 48.11672 | 4.42224 | 23256 ft | 464 kts | 320° |
| 2026-05-06 11:52 | 48.14103 | 4.39110 | 22682 ft | 456 kts | 320° |
| 2026-05-06 11:53 | 48.16494 | 4.36045 | 22058 ft | 449 kts | 319° |
| 2026-05-06 11:53 | 48.18847 | 4.33024 | 21420 ft | 442 kts | 319° |
| 2026-05-06 11:53 | 48.21168 | 4.30044 | 20803 ft | 437 kts | 319° |
| 2026-05-06 11:53 | 48.23464 | 4.27092 | 20180 ft | 432 kts | 319° |
| 2026-05-06 11:54 | 48.25701 | 4.24104 | 19542 ft | 428 kts | 315° |
| 2026-05-06 11:54 | 48.27689 | 4.20813 | 18931 ft | 424 kts | 310° |
| 2026-05-06 11:54 | 48.29537 | 4.17467 | 18731 ft | 408 kts | 309° |
| 2026-05-06 11:54 | 48.31303 | 4.14250 | 18623 ft | 391 kts | 309° |
| 2026-05-06 11:55 | 48.33004 | 4.11158 | 18372 ft | 380 kts | 309° |
| 2026-05-06 11:55 | 48.34690 | 4.08095 | 17750 ft | 380 kts | 309° |
| 2026-05-06 11:55 | 48.36365 | 4.05044 | 17217 ft | 377 kts | 309° |
| 2026-05-06 11:55 | 48.38020 | 4.02020 | 16712 ft | 373 kts | 309° |
| 2026-05-06 11:56 | 48.39657 | 3.99022 | 16193 ft | 369 kts | 309° |
| 2026-05-06 11:56 | 48.41278 | 3.96050 | 15710 ft | 365 kts | 309° |
| 2026-05-06 11:56 | 48.42882 | 3.93105 | 15212 ft | 362 kts | 309° |
| 2026-05-06 11:56 | 48.44472 | 3.90185 | 14715 ft | 359 kts | 309° |
| 2026-05-06 11:57 | 48.46049 | 3.87284 | 14225 ft | 356 kts | 309° |
| 2026-05-06 11:57 | 48.47607 | 3.84412 | 13731 ft | 352 kts | 309° |
| 2026-05-06 11:57 | 48.49151 | 3.81566 | 13213 ft | 348 kts | 309° |
| 2026-05-06 11:57 | 48.50674 | 3.78757 | 12740 ft | 344 kts | 309° |
| 2026-05-06 11:58 | 48.52175 | 3.75989 | 12373 ft | 335 kts | 309° |
| 2026-05-06 11:58 | 48.53593 | 3.73304 | 12249 ft | 319 kts | 306° |
| 2026-05-06 11:58 | 48.54827 | 3.70616 | 12142 ft | 304 kts | 303° |
| 2026-05-06 11:58 | 48.55962 | 3.68020 | 12020 ft | 290 kts | 303° |
| 2026-05-06 11:59 | 48.57048 | 3.65519 | 11908 ft | 281 kts | 303° |
| 2026-05-06 11:59 | 48.58106 | 3.63078 | 11715 ft | 275 kts | 302° |
| 2026-05-06 11:59 | 48.59147 | 3.60671 | 11400 ft | 272 kts | 302° |
| 2026-05-06 11:59 | 48.60176 | 3.58292 | 11108 ft | 269 kts | 303° |
| 2026-05-06 12:00 | 48.61387 | 3.56161 | 10825 ft | 267 kts | 318° |
| 2026-05-06 12:00 | 48.62947 | 3.54553 | 10633 ft | 279 kts | 327° |
| 2026-05-06 12:00 | 48.64652 | 3.53058 | 10403 ft | 285 kts | 328° |
| 2026-05-06 12:00 | 48.66374 | 3.51575 | 10152 ft | 285 kts | 329° |
| 2026-05-06 12:01 | 48.68096 | 3.50090 | 9920 ft | 285 kts | 328° |
| 2026-05-06 12:01 | 48.69812 | 3.48603 | 9669 ft | 283 kts | 327° |
| 2026-05-06 12:01 | 48.71518 | 3.47121 | 9437 ft | 282 kts | 328° |
| 2026-05-06 12:01 | 48.73215 | 3.45642 | 9203 ft | 280 kts | 328° |
| 2026-05-06 12:02 | 48.74873 | 3.44194 | 9017 ft | 278 kts | 328° |
| 2026-05-06 12:02 | 48.76552 | 3.42728 | 8830 ft | 278 kts | 328° |
| 2026-05-06 12:02 | 48.78219 | 3.41270 | 8611 ft | 277 kts | 329° |
| 2026-05-06 12:02 | 48.79892 | 3.39830 | 8443 ft | 276 kts | 330° |
| 2026-05-06 12:03 | 48.81565 | 3.38427 | 8311 ft | 273 kts | 330° |
| 2026-05-06 12:03 | 48.83224 | 3.37039 | 8067 ft | 271 kts | 330° |
| 2026-05-06 12:03 | 48.84862 | 3.35654 | 7821 ft | 269 kts | 330° |
| 2026-05-06 12:03 | 48.86282 | 3.33829 | 7404 ft | 270 kts | 308° |
| 2026-05-06 12:04 | 48.87306 | 3.31443 | 6935 ft | 270 kts | 302° |
| 2026-05-06 12:04 | 48.88237 | 3.28945 | 6519 ft | 267 kts | 301° |
| 2026-05-06 12:04 | 48.89137 | 3.26483 | 6089 ft | 266 kts | 301° |
| 2026-05-06 12:04 | 48.90016 | 3.24058 | 5634 ft | 265 kts | 301° |
| 2026-05-06 12:05 | 48.90753 | 3.21504 | 5391 ft | 264 kts | 294° |
| 2026-05-06 12:05 | 48.91519 | 3.19001 | 5371 ft | 254 kts | 299° |
| 2026-05-06 12:05 | 48.92294 | 3.16706 | 5381 ft | 235 kts | 301° |
| 2026-05-06 12:05 | 48.93064 | 3.14628 | 5403 ft | 217 kts | 303° |
| 2026-05-06 12:06 | 48.93830 | 3.12728 | 5436 ft | 207 kts | 305° |
| 2026-05-06 12:06 | 48.94598 | 3.10898 | 5463 ft | 205 kts | 306° |
| 2026-05-06 12:06 | 48.95371 | 3.09065 | 5466 ft | 206 kts | 306° |
| 2026-05-06 12:06 | 48.96143 | 3.07228 | 5454 ft | 207 kts | 305° |
| 2026-05-06 12:07 | 48.96916 | 3.05383 | 5453 ft | 207 kts | 306° |
| 2026-05-06 12:07 | 48.97688 | 3.03541 | 5451 ft | 207 kts | 306° |
| 2026-05-06 12:07 | 48.98462 | 3.01697 | 5455 ft | 207 kts | 306° |
| 2026-05-06 12:07 | 48.99237 | 2.99848 | 5450 ft | 207 kts | 306° |
| 2026-05-06 12:08 | 49.00009 | 2.98002 | 5348 ft | 206 kts | 306° |
| 2026-05-06 12:08 | 49.00741 | 2.96125 | 5124 ft | 207 kts | 299° |
| 2026-05-06 12:08 | 49.01158 | 2.94012 | 4856 ft | 211 kts | 282° |
| 2026-05-06 12:08 | 49.01164 | 2.91774 | 4542 ft | 212 kts | 269° |
| 2026-05-06 12:09 | 49.01025 | 2.89557 | 4211 ft | 208 kts | 269° |
| 2026-05-06 12:09 | 49.00915 | 2.87380 | 3904 ft | 204 kts | 270° |
| 2026-05-06 12:09 | 49.00806 | 2.85248 | 3631 ft | 199 kts | 270° |
| 2026-05-06 12:09 | 49.00695 | 2.83180 | 3365 ft | 193 kts | 270° |
| 2026-05-06 12:10 | 49.00590 | 2.81215 | 3122 ft | 179 kts | 270° |
| 2026-05-06 12:10 | 49.00494 | 2.79391 | 2871 ft | 167 kts | 271° |
| 2026-05-06 12:10 | 49.00405 | 2.77691 | 2645 ft | 155 kts | 271° |
| 2026-05-06 12:10 | 49.00322 | 2.76116 | 2444 ft | 144 kts | 272° |
| 2026-05-06 12:11 | 49.00244 | 2.74652 | 2259 ft | 136 kts | 273° |
| 2026-05-06 12:11 | 49.00171 | 2.73215 | 2072 ft | 136 kts | 272° |
| 2026-05-06 12:11 | 49.00095 | 2.71780 | 1885 ft | 136 kts | 272° |
| 2026-05-06 12:11 | 49.00019 | 2.70354 | 1693 ft | 134 kts | 272° |
| 2026-05-06 12:12 | 48.99946 | 2.68952 | 1498 ft | 132 kts | 271° |
| 2026-05-06 12:12 | 48.99856 | 2.67552 | 1349 ft | 134 kts | 269° |
| 2026-05-06 12:12 | 48.99754 | 2.66157 | 1124 ft | 132 kts | 271° |
| 2026-05-06 12:12 | 48.99696 | 2.64767 | 898 ft | 131 kts | 272° |
| 2026-05-06 12:13 | 48.99617 | 2.63399 | 733 ft | 130 kts | 271° |
| 2026-05-06 12:13 | 48.99560 | 2.62032 | 580 ft | 130 kts | 273° |
| 2026-05-06 12:13 | 48.99501 | 2.60655 | 447 ft | 131 kts | 270° |
| 2026-05-06 12:13 | 48.99427 | 2.59288 | 361 ft | 125 kts | 270° |
| 2026-05-06 12:14 | 48.99381 | 2.58124 | 366 ft | 92 kts | 264° |
| 2026-05-06 12:14 | 48.99356 | 2.57450 | 365 ft | 41 kts | 282° |
| 2026-05-06 12:14 | 48.99423 | 2.57090 | 365 ft | 32 kts | 286° |
| 2026-05-06 12:14 | 48.99470 | 2.56818 | 365 ft | 17 kts | 280° |
| 2026-05-06 12:15 | 48.99493 | 2.56663 | 364 ft | 6 kts | 317° |
| 2026-05-06 12:15 | 48.99555 | 2.56636 | 363 ft | 14 kts | 352° |
| 2026-05-06 12:15 | 48.99660 | 2.56618 | 366 ft | 15 kts | 355° |
| 2026-05-06 12:15 | 48.99760 | 2.56605 | 368 ft | 14 kts | 352° |
| 2026-05-06 12:16 | 48.99808 | 2.56564 | 368 ft | 11 kts | 310° |
| 2026-05-06 12:16 | 48.99825 | 2.56468 | 365 ft | 8 kts | 270° |
| 2026-05-06 12:16 | 48.99819 | 2.56365 | 366 ft | 12 kts | 265° |
| 2026-05-06 12:16 | 48.99810 | 2.56207 | 365 ft | 17 kts | 264° |
| 2026-05-06 12:17 | 48.99798 | 2.56002 | 366 ft | 22 kts | 269° |
| 2026-05-06 12:17 | 48.99828 | 2.55760 | 365 ft | 25 kts | 286° |
| 2026-05-06 12:17 | 48.99930 | 2.55559 | 366 ft | 23 kts | 334° |
| 2026-05-06 12:17 | 49.00074 | 2.55492 | 365 ft | 20 kts | 345° |
| 2026-05-06 12:18 | 49.00219 | 2.55429 | 369 ft | 23 kts | 343° |
| 2026-05-06 12:18 | 49.00382 | 2.55357 | 365 ft | 26 kts | 343° |
| 2026-05-06 12:18 | 49.00563 | 2.55280 | 366 ft | 28 kts | 343° |
| 2026-05-06 12:18 | 49.00690 | 2.55275 | 365 ft | 11 kts | 47° |
| 2026-05-06 12:19 | 49.00723 | 2.55406 | 368 ft | 17 kts | 79° |
| 2026-05-06 12:19 | 49.00739 | 2.55608 | 366 ft | 22 kts | 83° |
| 2026-05-06 12:19 | 49.00760 | 2.55860 | 361 ft | 26 kts | 82° |
| 2026-05-06 12:19 | 49.00788 | 2.56149 | 365 ft | 28 kts | 82° |
| 2026-05-06 12:20 | 49.00805 | 2.56393 | 366 ft | 14 kts | 103° |
| 2026-05-06 12:20 | 49.00757 | 2.56442 | 367 ft | 10 kts | 167° |
| 2026-05-06 12:20 | 49.00660 | 2.56480 | 363 ft | 17 kts | 144° |
| 2026-05-06 12:20 | 49.00638 | 2.56616 | 367 ft | 10 kts | 86° |
| 2026-05-06 12:21 | 49.00607 | 2.56655 | 364 ft | 6 kts | 170° |
| 2026-05-06 12:21 | 49.00593 | 2.56658 | 364 ft | 1 kts | 173° |
| 2026-05-06 12:21 | 49.00584 | 2.56659 | 365 ft | 0 kts | 174° |